createdAt,value
2017-12-22T00:00:05.600Z,1012.14
2017-12-22T00:01:15.753Z,1012.19
2017-12-22T00:02:25.838Z,1012.29
2017-12-22T00:03:35.647Z,1012.25
2017-12-22T00:04:45.181Z,1012.25
2017-12-22T00:05:54.977Z,1012.2
2017-12-22T00:07:04.841Z,1012.27
2017-12-22T00:08:14.635Z,1012.29
2017-12-22T00:09:24.744Z,1012.26
2017-12-22T00:10:34.283Z,1012.26
2017-12-22T00:11:44.353Z,1012.25
2017-12-22T00:12:54.413Z,1012.22
2017-12-22T00:14:04.489Z,1012.19
2017-12-22T00:15:14.540Z,1012.15
2017-12-22T00:16:24.624Z,1012.2
2017-12-22T00:17:34.420Z,1012.22
2017-12-22T00:18:44.525Z,1012.15
2017-12-22T00:19:54.335Z,1012.09
2017-12-22T00:21:04.418Z,1012.13
2017-12-22T00:22:14.205Z,1012.11
2017-12-22T00:23:23.736Z,1012.18
2017-12-22T00:24:33.842Z,1012.16
2017-12-22T00:25:43.891Z,1012.13
2017-12-22T00:26:53.175Z,1012.12
2017-12-22T00:28:03.028Z,1012.07
2017-12-22T00:29:12.844Z,1012.07
2017-12-22T00:30:22.891Z,1012.03
2017-12-22T00:31:32.944Z,1012.04
2017-12-22T00:32:43.006Z,1011.98
2017-12-22T00:33:53.052Z,1011.99
2017-12-22T00:35:03.104Z,1012.06
2017-12-22T00:36:13.183Z,1012.05
2017-12-22T00:37:22.981Z,1012.1
2017-12-22T00:38:33.031Z,1012.1
2017-12-22T00:39:43.097Z,1012.11
2017-12-22T00:40:52.359Z,1012.16
2017-12-22T00:42:02.493Z,1012.16
2017-12-22T00:43:12.027Z,1012.21
2017-12-22T00:44:22.102Z,1012.19
2017-12-22T00:45:31.913Z,1012.24
2017-12-22T00:46:41.732Z,1012.28
2017-12-22T00:47:51.788Z,1012.26
2017-12-22T00:49:01.594Z,1012.31
2017-12-22T00:50:11.640Z,1012.38
2017-12-22T00:51:21.715Z,1012.37
2017-12-22T00:52:31.265Z,1012.37
2017-12-22T00:53:41.071Z,1012.39
2017-12-22T00:54:50.865Z,1012.36
2017-12-22T00:56:00.654Z,1012.33
2017-12-22T00:57:10.716Z,1012.39
2017-12-22T00:58:20.502Z,1012.38
2017-12-22T00:59:30.616Z,1012.37
2017-12-22T01:00:40.665Z,1012.36
2017-12-22T01:01:50.464Z,1012.3
2017-12-22T01:03:00.530Z,1012.34
2017-12-22T01:04:10.317Z,1012.38
2017-12-22T01:05:20.436Z,1012.41
2017-12-22T01:06:29.954Z,1012.41
2017-12-22T01:07:39.757Z,1012.42
2017-12-22T01:08:49.803Z,1012.38
2017-12-22T01:09:59.337Z,1012.33
2017-12-22T01:11:09.170Z,1012.34
2017-12-22T01:12:19.233Z,1012.36
2017-12-22T01:13:29.291Z,1012.35
2017-12-22T01:14:39.332Z,1012.38
2017-12-22T01:15:48.870Z,1012.37
2017-12-22T01:16:58.675Z,1012.39
2017-12-22T01:18:08.722Z,1012.37
2017-12-22T01:19:18.250Z,1012.39
2017-12-22T01:20:27.772Z,1012.37
2017-12-22T01:21:37.307Z,1012.35
2017-12-22T01:22:47.409Z,1012.39
2017-12-22T01:23:56.944Z,1012.39
2017-12-22T01:25:07.007Z,1012.34
2017-12-22T01:26:17.056Z,1012.33
2017-12-22T01:27:27.122Z,1012.33
2017-12-22T01:28:36.705Z,1012.32
2017-12-22T01:29:46.746Z,1012.3
2017-12-22T01:30:56.285Z,1012.26
2017-12-22T01:32:06.324Z,1012.3
2017-12-22T01:33:16.125Z,1012.23
2017-12-22T01:34:25.929Z,1012.19
2017-12-22T01:35:35.984Z,1012.23
2017-12-22T01:36:45.782Z,1012.22
2017-12-22T01:37:55.590Z,1012.25
2017-12-22T01:39:05.116Z,1012.18
2017-12-22T01:40:15.006Z,1012.21
2017-12-22T01:41:24.540Z,1012.29
2017-12-22T01:42:34.588Z,1012.27
2017-12-22T01:43:44.671Z,1012.25
2017-12-22T01:44:54.773Z,1012.26
2017-12-22T01:46:04.564Z,1012.24
2017-12-22T01:47:14.602Z,1012.23
2017-12-22T01:48:24.665Z,1012.18
2017-12-22T01:49:34.200Z,1012.21
2017-12-22T01:50:43.740Z,1012.16
2017-12-22T01:51:53.546Z,1012.18
2017-12-22T01:53:03.602Z,1012.18
2017-12-22T01:54:13.648Z,1012.16
2017-12-22T01:55:23.705Z,1012.22
2017-12-22T01:56:33.500Z,1012.15
2017-12-22T01:57:43.601Z,1012.19
2017-12-22T01:58:53.670Z,1012.18
2017-12-22T02:00:03.722Z,1012.15
2017-12-22T02:01:13.779Z,1012.17
2017-12-22T02:02:23.845Z,1012.18
2017-12-22T02:03:33.937Z,1012.17
2017-12-22T02:04:43.775Z,1012.12
2017-12-22T02:05:53.554Z,1012.13
2017-12-22T02:07:03.614Z,1012.14
2017-12-22T02:08:13.662Z,1012.15
2017-12-22T02:09:23.571Z,1012.18
2017-12-22T02:10:33.627Z,1012.15
2017-12-22T02:11:43.687Z,1012.17
2017-12-22T02:12:54.075Z,1012.17
2017-12-22T02:14:04.258Z,1012.2
2017-12-22T02:15:14.314Z,1012.19
2017-12-22T02:16:24.384Z,1012.17
2017-12-22T02:17:34.437Z,1012.16
2017-12-22T02:18:44.238Z,1012.19
2017-12-22T02:19:54.331Z,1012.21
2017-12-22T02:21:03.876Z,1012.24
2017-12-22T02:22:13.661Z,1012.18
2017-12-22T02:23:23.717Z,1012.16
2017-12-22T02:24:33.769Z,1012.18
2017-12-22T02:25:43.831Z,1012.16
2017-12-22T02:26:53.877Z,1012.18
2017-12-22T02:28:03.408Z,1012.13
2017-12-22T02:29:13.214Z,1012.15
2017-12-22T02:30:22.991Z,1012.17
2017-12-22T02:31:32.515Z,1012.16
2017-12-22T02:32:42.304Z,1012.12
2017-12-22T02:33:52.123Z,1012.15
2017-12-22T02:35:02.200Z,1012.16
2017-12-22T02:36:11.986Z,1012.18
2017-12-22T02:37:22.048Z,1012.18
2017-12-22T02:38:32.161Z,1012.14
2017-12-22T02:39:42.220Z,1012.12
2017-12-22T02:40:52.282Z,1012.16
2017-12-22T02:42:01.805Z,1012.17
2017-12-22T02:43:11.614Z,1012.18
2017-12-22T02:44:21.401Z,1012.08
2017-12-22T02:45:31.463Z,1012.16
2017-12-22T02:46:41.554Z,1012.15
2017-12-22T02:47:51.394Z,1012.16
2017-12-22T02:49:01.184Z,1012.21
2017-12-22T02:50:10.966Z,1012.16
2017-12-22T02:51:21.426Z,1012.2
2017-12-22T02:52:31.485Z,1012.16
2017-12-22T02:53:41.021Z,1012.11
2017-12-22T02:54:50.810Z,1012.19
2017-12-22T02:56:00.647Z,1012.15
2017-12-22T02:57:10.440Z,1012.18
2017-12-22T02:58:20.239Z,1012.19
2017-12-22T02:59:30.313Z,1012.19
2017-12-22T03:00:40.375Z,1012.15
2017-12-22T03:01:50.228Z,1012.16
2017-12-22T03:34:02.570Z,1012.22
2017-12-22T03:35:12.358Z,1012.22
2017-12-22T03:36:22.405Z,1012.26
2017-12-22T03:37:32.207Z,1012.26
2017-12-22T03:38:42.240Z,1012.26
2017-12-22T03:39:53.331Z,1012.24
2017-12-22T03:41:03.364Z,1012.25
2017-12-22T03:42:13.604Z,1012.28
2017-12-22T03:43:23.641Z,1012.29
2017-12-22T03:44:33.437Z,1012.24
2017-12-22T03:45:43.491Z,1012.23
2017-12-22T03:46:53.292Z,1012.26
2017-12-22T03:48:03.346Z,1012.25
2017-12-22T03:49:13.153Z,1012.23
2017-12-22T03:50:23.227Z,1012.26
2017-12-22T03:51:33.078Z,1012.24
2017-12-22T03:52:43.135Z,1012.25
2017-12-22T03:53:52.989Z,1012.24
2017-12-22T03:55:03.054Z,1012.26
2017-12-22T03:56:13.104Z,1012.25
2017-12-22T03:57:23.170Z,1012.26
2017-12-22T03:58:33.222Z,1012.27
2017-12-22T03:59:43.281Z,1012.25
2017-12-22T04:00:53.353Z,1012.29
2017-12-22T04:02:03.149Z,1012.34
2017-12-22T04:03:13.201Z,1012.32
2017-12-22T04:04:23.250Z,1012.28
2017-12-22T04:05:33.303Z,1012.26
2017-12-22T04:06:43.378Z,1012.26
2017-12-22T04:07:53.422Z,1012.26
2017-12-22T04:09:03.220Z,1012.26
2017-12-22T04:10:12.747Z,1012.27
2017-12-22T04:11:22.834Z,1012.26
2017-12-22T04:12:32.619Z,1012.27
2017-12-22T04:13:42.712Z,1012.24
2017-12-22T04:14:52.763Z,1012.24
2017-12-22T04:16:02.825Z,1012.21
2017-12-22T04:17:12.631Z,1012.22
2017-12-22T04:18:22.691Z,1012.18
2017-12-22T04:19:32.741Z,1012.18
2017-12-22T04:20:42.572Z,1012.17
2017-12-22T04:21:52.615Z,1012.14
2017-12-22T04:23:02.409Z,1012.15
2017-12-22T04:24:12.212Z,1012.11
2017-12-22T04:25:22.260Z,1012.13
2017-12-22T04:26:31.798Z,1012.16
2017-12-22T04:27:41.590Z,1012.16
2017-12-22T04:28:51.643Z,1012.14
2017-12-22T04:30:01.499Z,1012.13
2017-12-22T04:31:11.813Z,1012.12
2017-12-22T04:32:21.674Z,1012.19
2017-12-22T04:33:31.741Z,1012.21
2017-12-22T04:34:41.812Z,1012.2
2017-12-22T04:35:51.858Z,1012.21
2017-12-22T04:37:01.919Z,1012.17
2017-12-22T04:38:11.969Z,1012.2
2017-12-22T04:39:22.019Z,1012.18
2017-12-22T04:40:31.831Z,1012.23
2017-12-22T04:41:41.874Z,1012.27
2017-12-22T04:42:51.926Z,1012.13
2017-12-22T04:44:02.023Z,1012.19
2017-12-22T04:45:12.091Z,1012.13
2017-12-22T04:46:22.141Z,1012.14
2017-12-22T04:47:31.927Z,1012.16
2017-12-22T04:48:41.999Z,1012.14
2017-12-22T04:49:52.048Z,1012.13
2017-12-22T04:51:02.096Z,1012.1
2017-12-22T04:52:12.149Z,1012.05
2017-12-22T04:53:21.679Z,1012.08
2017-12-22T04:54:31.480Z,1012.06
2017-12-22T04:55:41.597Z,1012.01
2017-12-22T04:56:51.392Z,1012.04
2017-12-22T04:58:01.194Z,1012.02
2017-12-22T04:59:11.253Z,1012.02
2017-12-22T05:00:20.785Z,1012.05
2017-12-22T05:01:30.839Z,1012.04
2017-12-22T05:02:40.695Z,1011.99
2017-12-22T05:03:50.755Z,1012.02
2017-12-22T05:05:00.311Z,1011.92
2017-12-22T05:06:10.373Z,1011.97
2017-12-22T05:07:20.483Z,1011.97
2017-12-22T05:08:30.552Z,1011.98
2017-12-22T05:09:40.606Z,1011.93
2017-12-22T05:10:50.399Z,1011.94
2017-12-22T05:12:00.465Z,1011.95
2017-12-22T05:13:10.573Z,1011.94
2017-12-22T05:14:20.366Z,1011.97
2017-12-22T05:15:30.518Z,1011.93
2017-12-22T05:16:40.570Z,1011.86
2017-12-22T05:17:50.372Z,1011.89
2017-12-22T05:19:00.476Z,1011.86
2017-12-22T05:20:10.272Z,1011.79
2017-12-22T05:21:20.343Z,1011.82
2017-12-22T05:22:30.414Z,1011.88
2017-12-22T05:23:40.462Z,1011.87
2017-12-22T05:24:50.039Z,1011.85
2017-12-22T05:25:59.576Z,1011.84
2017-12-22T05:27:09.627Z,1011.86
2017-12-22T05:28:19.425Z,1011.91
2017-12-22T05:29:29.474Z,1011.91
2017-12-22T05:30:39.578Z,1011.87
2017-12-22T05:31:49.370Z,1011.82
2017-12-22T05:32:59.181Z,1011.79
2017-12-22T05:34:09.243Z,1011.78
2017-12-22T05:35:19.043Z,1011.83
2017-12-22T05:36:28.842Z,1011.81
2017-12-22T05:37:38.898Z,1011.81
2017-12-22T05:38:48.176Z,1011.81
2017-12-22T05:39:58.223Z,1011.8
2017-12-22T05:41:08.261Z,1011.81
2017-12-22T05:42:18.319Z,1011.79
2017-12-22T05:43:28.384Z,1011.73
2017-12-22T05:44:38.437Z,1011.78
2017-12-22T05:45:48.231Z,1011.76
2017-12-22T05:46:58.041Z,1011.72
2017-12-22T05:48:07.056Z,1011.77
2017-12-22T05:49:16.862Z,1011.77
2017-12-22T05:50:26.932Z,1011.81
2017-12-22T05:51:36.715Z,1011.77
2017-12-22T05:52:46.505Z,1011.7
2017-12-22T05:53:56.614Z,1011.8
2017-12-22T05:55:06.410Z,1011.74
2017-12-22T05:56:16.213Z,1011.77
2017-12-22T05:57:26.050Z,1011.76
2017-12-22T05:58:36.099Z,1011.72
2017-12-22T05:59:45.678Z,1011.72
2017-12-22T06:00:55.468Z,1011.76
2017-12-22T06:02:05.522Z,1011.78
2017-12-22T06:03:15.301Z,1011.78
2017-12-22T06:04:25.348Z,1011.83
2017-12-22T06:05:35.141Z,1011.85
2017-12-22T06:06:45.192Z,1011.87
2017-12-22T06:07:55.237Z,1011.88
2017-12-22T06:09:05.307Z,1011.81
2017-12-22T06:10:15.373Z,1011.81
2017-12-22T06:11:25.477Z,1011.82
2017-12-22T06:12:35.545Z,1011.88
2017-12-22T06:13:45.353Z,1011.92
2017-12-22T06:14:55.136Z,1011.93
2017-12-22T06:16:05.171Z,1011.95
2017-12-22T06:17:15.224Z,1011.95
2017-12-22T06:18:25.008Z,1011.93
2017-12-22T06:19:35.073Z,1011.91
2017-12-22T06:20:44.858Z,1011.91
2017-12-22T06:21:54.669Z,1011.9
2017-12-22T06:23:04.721Z,1011.94
2017-12-22T06:24:14.503Z,1011.95
2017-12-22T06:25:24.286Z,1011.91
2017-12-22T06:26:34.090Z,1011.97
2017-12-22T06:27:43.884Z,1011.93
2017-12-22T06:28:53.148Z,1011.9
2017-12-22T06:30:02.956Z,1011.91
2017-12-22T06:31:12.497Z,1011.91
2017-12-22T06:32:22.301Z,1011.92
2017-12-22T06:33:32.374Z,1011.95
2017-12-22T06:34:42.206Z,1011.98
2017-12-22T06:35:52.365Z,1011.97
2017-12-22T06:37:02.149Z,1012
2017-12-22T06:38:11.954Z,1012.01
2017-12-22T06:39:21.766Z,1012.06
2017-12-22T06:40:31.612Z,1012.12
2017-12-22T06:41:41.660Z,1012.11
2017-12-22T06:42:51.717Z,1012.15
2017-12-22T06:44:01.523Z,1012.11
2017-12-22T06:45:11.060Z,1012.12
2017-12-22T06:46:20.902Z,1012.12
2017-12-22T06:47:30.954Z,1012.18
2017-12-22T06:48:41.010Z,1012.19
2017-12-22T06:49:50.818Z,1012.21
2017-12-22T06:51:00.884Z,1012.22
2017-12-22T06:52:10.681Z,1012.26
2017-12-22T06:53:20.536Z,1012.18
2017-12-22T06:54:30.590Z,1012.21
2017-12-22T06:55:40.660Z,1012.23
2017-12-22T06:56:50.510Z,1012.27
2017-12-22T06:58:00.355Z,1012.23
2017-12-22T06:59:10.412Z,1012.3
2017-12-22T07:00:20.468Z,1012.24
2017-12-22T07:01:30.263Z,1012.32
2017-12-22T07:02:40.082Z,1012.27
2017-12-22T07:03:50.184Z,1012.31
2017-12-22T07:04:59.756Z,1012.3
2017-12-22T07:06:09.542Z,1012.36
2017-12-22T07:07:19.592Z,1012.31
2017-12-22T07:08:29.647Z,1012.35
2017-12-22T07:09:39.713Z,1012.33
2017-12-22T07:10:49.774Z,1012.35
2017-12-22T07:11:59.831Z,1012.31
2017-12-22T07:13:09.641Z,1012.32
2017-12-22T07:14:19.704Z,1012.35
2017-12-22T07:15:29.747Z,1012.31
2017-12-22T07:16:39.793Z,1012.32
2017-12-22T07:17:49.865Z,1012.32
2017-12-22T07:18:59.920Z,1012.3
2017-12-22T07:20:09.993Z,1012.37
2017-12-22T07:21:20.096Z,1012.33
2017-12-22T07:22:29.881Z,1012.37
2017-12-22T07:23:39.685Z,1012.35
2017-12-22T07:24:49.765Z,1012.34
2017-12-22T07:25:59.303Z,1012.31
2017-12-22T07:27:09.148Z,1012.29
2017-12-22T07:28:19.197Z,1012.33
2017-12-22T07:29:28.731Z,1012.34
2017-12-22T07:30:38.784Z,1012.36
2017-12-22T07:31:48.571Z,1012.33
2017-12-22T07:32:58.518Z,1012.37
2017-12-22T07:34:08.062Z,1012.36
2017-12-22T07:35:17.591Z,1012.31
2017-12-22T07:36:27.671Z,1012.34
2017-12-22T07:37:37.442Z,1012.4
2017-12-22T07:38:47.230Z,1012.39
2017-12-22T07:39:57.042Z,1012.41
2017-12-22T07:41:07.093Z,1012.38
2017-12-22T07:42:17.246Z,1012.47
2017-12-22T07:43:27.282Z,1012.43
2017-12-22T07:44:37.389Z,1012.45
2017-12-22T07:45:47.427Z,1012.45
2017-12-22T07:46:57.219Z,1012.45
2017-12-22T07:48:07.020Z,1012.43
2017-12-22T07:49:16.811Z,1012.46
2017-12-22T07:50:26.890Z,1012.44
2017-12-22T07:51:36.952Z,1012.5
2017-12-22T07:52:46.768Z,1012.51
2017-12-22T07:53:56.817Z,1012.51
2017-12-22T07:55:06.617Z,1012.54
2017-12-22T07:56:16.726Z,1012.56
2017-12-22T07:57:26.801Z,1012.64
2017-12-22T07:58:36.839Z,1012.59
2017-12-22T07:59:46.903Z,1012.56
2017-12-22T08:00:56.710Z,1012.61
2017-12-22T08:02:06.772Z,1012.57
2017-12-22T08:03:16.831Z,1012.6
2017-12-22T08:04:26.940Z,1012.59
2017-12-22T08:05:37.022Z,1012.6
2017-12-22T08:06:47.082Z,1012.57
2017-12-22T08:07:56.871Z,1012.64
2017-12-22T08:09:06.926Z,1012.64
2017-12-22T08:10:16.726Z,1012.66
2017-12-22T08:11:26.770Z,1012.64
2017-12-22T08:12:36.843Z,1012.67
2017-12-22T08:13:47.058Z,1012.63
2017-12-22T08:14:56.842Z,1012.67
2017-12-22T08:16:06.647Z,1012.63
2017-12-22T08:17:16.460Z,1012.59
2017-12-22T08:18:26.000Z,1012.61
2017-12-22T08:19:36.096Z,1012.55
2017-12-22T08:20:46.232Z,1012.58
2017-12-22T08:21:56.021Z,1012.6
2017-12-22T08:23:06.077Z,1012.55
2017-12-22T08:24:15.866Z,1012.62
2017-12-22T08:25:25.793Z,1012.6
2017-12-22T08:26:35.974Z,1012.63
2017-12-22T08:27:46.072Z,1012.62
2017-12-22T08:28:55.852Z,1012.65
2017-12-22T08:30:05.892Z,1012.66
2017-12-22T08:31:16.011Z,1012.64
2017-12-22T08:32:26.172Z,1012.61
2017-12-22T08:33:35.973Z,1012.63
2017-12-22T08:34:46.037Z,1012.62
2017-12-22T08:35:56.106Z,1012.58
2017-12-22T08:37:06.161Z,1012.63
2017-12-22T08:38:16.253Z,1012.65
2017-12-22T08:39:26.311Z,1012.65
2017-12-22T08:40:36.376Z,1012.66
2017-12-22T08:41:45.909Z,1012.67
2017-12-22T08:42:55.469Z,1012.67
2017-12-22T08:44:05.264Z,1012.72
2017-12-22T08:45:15.055Z,1012.67
2017-12-22T08:46:26.323Z,1012.67
2017-12-22T08:47:36.404Z,1012.69
2017-12-22T08:48:46.245Z,1012.68
2017-12-22T08:49:55.505Z,1012.72
2017-12-22T08:51:05.045Z,1012.72
2017-12-22T08:52:15.126Z,1012.72
2017-12-22T08:53:24.968Z,1012.67
2017-12-22T08:54:34.793Z,1012.68
2017-12-22T08:55:44.602Z,1012.72
2017-12-22T08:56:55.504Z,1012.72
2017-12-22T08:58:05.322Z,1012.66
2017-12-22T08:59:15.176Z,1012.65
2017-12-22T09:00:25.937Z,1012.69
2017-12-22T09:01:36.366Z,1012.66
2017-12-22T09:02:48.257Z,1012.66
2017-12-22T09:04:01.209Z,1012.7
2017-12-22T09:05:13.919Z,1012.65
2017-12-22T09:06:28.117Z,1012.7
2017-12-22T09:07:40.486Z,1012.72
2017-12-22T09:08:52.231Z,1012.72
2017-12-22T09:10:03.508Z,1012.74
2017-12-22T09:11:15.893Z,1012.73
2017-12-22T09:12:27.848Z,1012.69
2017-12-22T09:13:38.006Z,1012.71
2017-12-22T09:14:51.072Z,1012.72
2017-12-22T09:16:01.240Z,1012.69
2017-12-22T09:17:11.875Z,1012.69
2017-12-22T09:18:22.131Z,1012.72
2017-12-22T09:19:32.737Z,1012.72
2017-12-22T09:20:42.810Z,1012.72
2017-12-22T09:21:52.875Z,1012.72
2017-12-22T09:23:02.943Z,1012.76
2017-12-22T09:24:12.739Z,1012.73
2017-12-22T09:25:22.787Z,1012.73
2017-12-22T09:26:32.586Z,1012.71
2017-12-22T09:27:42.659Z,1012.7
2017-12-22T09:28:52.524Z,1012.64
2017-12-22T09:30:02.391Z,1012.64
2017-12-22T09:31:12.049Z,1012.65
2017-12-22T09:32:22.217Z,1012.68
2017-12-22T09:33:34.075Z,1012.61
2017-12-22T09:34:43.896Z,1012.55
2017-12-22T09:35:54.005Z,1012.58
2017-12-22T09:37:04.083Z,1012.54
2017-12-22T09:38:13.875Z,1012.49
2017-12-22T09:39:23.957Z,1012.47
2017-12-22T09:40:33.872Z,1012.51
2017-12-22T09:41:43.746Z,1012.45
2017-12-22T09:42:53.815Z,1012.44
2017-12-22T09:44:03.615Z,1012.49
2017-12-22T09:45:13.418Z,1012.46
2017-12-22T09:46:23.215Z,1012.46
2017-12-22T09:47:33.020Z,1012.47
2017-12-22T09:48:43.977Z,1012.47
2017-12-22T09:49:53.788Z,1012.47
2017-12-22T09:51:03.369Z,1012.47
2017-12-22T09:52:12.871Z,1012.43
2017-12-22T09:53:22.407Z,1012.45
2017-12-22T09:54:32.466Z,1012.46
2017-12-22T09:55:42.519Z,1012.48
2017-12-22T09:56:52.599Z,1012.42
2017-12-22T09:58:03.405Z,1012.45
2017-12-22T09:59:12.962Z,1012.45
2017-12-22T10:00:23.039Z,1012.46
2017-12-22T10:01:32.817Z,1012.42
2017-12-22T10:02:42.632Z,1012.38
2017-12-22T10:03:52.185Z,1012.33
2017-12-22T10:05:02.246Z,1012.35
2017-12-22T10:06:12.314Z,1012.36
2017-12-22T10:07:22.393Z,1012.3
2017-12-22T10:08:32.181Z,1012.35
2017-12-22T10:09:42.027Z,1012.36
2017-12-22T10:10:52.089Z,1012.31
2017-12-22T10:12:01.900Z,1012.33
2017-12-22T10:13:11.964Z,1012.26
2017-12-22T10:14:22.020Z,1012.31
2017-12-22T10:15:31.859Z,1012.24
2017-12-22T10:16:41.924Z,1012.23
2017-12-22T10:17:52.045Z,1012.21
2017-12-22T10:19:01.318Z,1012.21
2017-12-22T10:20:11.399Z,1012.2
2017-12-22T10:21:21.535Z,1012.15
2017-12-22T10:22:31.352Z,1012.14
2017-12-22T10:23:41.144Z,1012.07
2017-12-22T10:24:50.681Z,1012.08
2017-12-22T10:26:00.224Z,1012.04
2017-12-22T10:27:10.285Z,1012.03
2017-12-22T10:28:20.078Z,1012.05
2017-12-22T10:29:29.918Z,1011.98
2017-12-22T10:30:39.715Z,1011.96
2017-12-22T10:31:49.774Z,1011.96
2017-12-22T10:32:59.577Z,1011.9
2017-12-22T10:34:09.407Z,1011.9
2017-12-22T10:35:19.222Z,1011.88
2017-12-22T10:36:29.291Z,1011.85
2017-12-22T10:37:39.415Z,1011.88
2017-12-22T10:38:49.517Z,1011.87
2017-12-22T10:39:59.586Z,1011.8
2017-12-22T10:41:09.715Z,1011.83
2017-12-22T10:42:19.789Z,1011.82
2017-12-22T10:43:29.841Z,1011.8
2017-12-22T10:44:39.745Z,1011.8
2017-12-22T10:45:49.813Z,1011.79
2017-12-22T10:46:59.960Z,1011.9
2017-12-22T10:48:10.139Z,1011.93
2017-12-22T10:49:19.941Z,1011.86
2017-12-22T10:50:30.005Z,1011.89
2017-12-22T10:51:40.062Z,1011.88
2017-12-22T10:52:50.127Z,1011.79
2017-12-22T10:54:00.191Z,1011.84
2017-12-22T10:55:10.246Z,1011.86
2017-12-22T10:56:20.116Z,1011.85
2017-12-22T10:57:29.900Z,1011.81
2017-12-22T10:58:39.695Z,1011.83
2017-12-22T10:59:49.779Z,1011.76
2017-12-22T11:00:59.864Z,1011.8
2017-12-22T11:02:09.699Z,1011.78
2017-12-22T11:03:19.539Z,1011.8
2017-12-22T11:04:29.600Z,1011.78
2017-12-22T11:05:39.128Z,1011.75
2017-12-22T11:06:49.204Z,1011.78
2017-12-22T11:07:58.812Z,1011.72
2017-12-22T11:09:08.897Z,1011.76
2017-12-22T11:10:18.979Z,1011.75
2017-12-22T11:11:29.246Z,1011.69
2017-12-22T11:12:39.298Z,1011.73
2017-12-22T11:13:48.843Z,1011.74
2017-12-22T11:14:58.958Z,1011.65
2017-12-22T11:16:08.744Z,1011.69
2017-12-22T11:17:18.820Z,1011.62
2017-12-22T11:18:28.632Z,1011.69
2017-12-22T11:19:38.735Z,1011.69
2017-12-22T11:20:48.527Z,1011.63
2017-12-22T11:21:59.427Z,1011.58
2017-12-22T11:23:08.975Z,1011.56
2017-12-22T11:24:18.801Z,1011.59
2017-12-22T11:25:28.398Z,1011.5
2017-12-22T11:26:38.190Z,1011.54
2017-12-22T11:27:48.247Z,1011.5
2017-12-22T11:28:58.325Z,1011.49
2017-12-22T11:30:08.153Z,1011.54
2017-12-22T11:31:18.260Z,1011.54
2017-12-22T11:32:28.052Z,1011.53
2017-12-22T11:33:37.869Z,1011.51
2017-12-22T11:34:48.225Z,1011.53
2017-12-22T11:35:58.280Z,1011.53
2017-12-22T11:37:07.542Z,1011.49
2017-12-22T11:38:17.596Z,1011.51
2017-12-22T11:39:27.397Z,1011.48
2017-12-22T11:40:37.460Z,1011.44
2017-12-22T11:41:47.283Z,1011.45
2017-12-22T11:42:57.412Z,1011.46
2017-12-22T11:44:07.485Z,1011.46
2017-12-22T11:45:17.544Z,1011.42
2017-12-22T11:46:27.355Z,1011.39
2017-12-22T11:47:37.178Z,1011.32
2017-12-22T11:48:47.281Z,1011.36
2017-12-22T11:49:57.352Z,1011.37
2017-12-22T11:51:07.410Z,1011.36
2017-12-22T11:52:17.457Z,1011.36
2017-12-22T11:53:27.254Z,1011.36
2017-12-22T11:54:37.332Z,1011.38
2017-12-22T11:55:47.413Z,1011.4
2017-12-22T11:56:56.967Z,1011.39
2017-12-22T11:58:07.051Z,1011.39
2017-12-22T11:59:17.114Z,1011.35
2017-12-22T12:00:27.038Z,1011.29
2017-12-22T12:01:37.097Z,1011.28
2017-12-22T12:02:46.918Z,1011.34
2017-12-22T12:03:56.987Z,1011.32
2017-12-22T12:05:07.190Z,1011.3
2017-12-22T12:06:17.249Z,1011.27
2017-12-22T12:07:26.772Z,1011.26
2017-12-22T12:08:36.836Z,1011.26
2017-12-22T12:09:46.638Z,1011.21
2017-12-22T12:10:56.714Z,1011.21
2017-12-22T12:12:06.594Z,1011.21
2017-12-22T12:13:16.669Z,1011.17
2017-12-22T12:14:26.467Z,1011.2
2017-12-22T12:15:36.022Z,1011.2
2017-12-22T12:16:46.136Z,1011.16
2017-12-22T12:17:56.256Z,1011.19
2017-12-22T12:19:05.810Z,1011.11
2017-12-22T12:20:15.631Z,1011.07
2017-12-22T12:21:25.175Z,1011.05
2017-12-22T12:22:34.987Z,1011.1
2017-12-22T12:23:45.119Z,1011.07
2017-12-22T12:24:54.934Z,1011.05
2017-12-22T12:26:04.988Z,1010.98
2017-12-22T12:27:14.805Z,1010.92
2017-12-22T12:28:24.889Z,1010.92
2017-12-22T12:29:34.961Z,1010.94
2017-12-22T12:30:45.013Z,1010.88
2017-12-22T12:31:54.799Z,1010.84
2017-12-22T12:33:04.870Z,1010.82
2017-12-22T12:34:14.640Z,1010.89
2017-12-22T12:35:24.437Z,1010.83
2017-12-22T12:36:34.512Z,1010.78
2017-12-22T12:37:44.311Z,1010.75
2017-12-22T12:38:55.460Z,1010.75
2017-12-22T12:40:05.519Z,1010.74
2017-12-22T12:41:15.598Z,1010.69
2017-12-22T12:42:25.420Z,1010.68
2017-12-22T12:43:35.530Z,1010.61
2017-12-22T12:44:44.809Z,1010.66
2017-12-22T12:45:57.253Z,1010.62
2017-12-22T12:47:08.502Z,1010.58
2017-12-22T12:48:18.576Z,1010.58
2017-12-22T12:49:30.431Z,1010.55
2017-12-22T12:50:45.437Z,1010.48
2017-12-22T12:52:02.061Z,1010.5
2017-12-22T12:53:15.685Z,1010.48
2017-12-22T12:54:29.043Z,1010.49
2017-12-22T12:55:39.537Z,1010.44
2017-12-22T12:56:49.649Z,1010.44
2017-12-22T12:57:59.796Z,1010.44
2017-12-22T12:59:09.335Z,1010.45
2017-12-22T13:00:19.159Z,1010.43
2017-12-22T13:01:28.962Z,1010.42
2017-12-22T13:02:38.761Z,1010.53
2017-12-22T13:03:48.885Z,1010.49
2017-12-22T13:04:58.939Z,1010.42
2017-12-22T13:06:08.735Z,1010.43
2017-12-22T13:07:18.545Z,1010.41
2017-12-22T13:08:28.602Z,1010.38
2017-12-22T13:09:38.706Z,1010.39
2017-12-22T13:10:48.777Z,1010.34
2017-12-22T13:11:58.842Z,1010.35
2017-12-22T13:13:08.912Z,1010.38
2017-12-22T13:14:18.983Z,1010.28
2017-12-22T13:15:29.067Z,1010.35
2017-12-22T13:16:39.139Z,1010.28
2017-12-22T13:17:49.207Z,1010.27
2017-12-22T13:18:59.004Z,1010.29
2017-12-22T13:20:08.808Z,1010.31
2017-12-22T13:21:18.877Z,1010.33
2017-12-22T13:22:28.678Z,1010.31
2017-12-22T13:23:38.744Z,1010.33
2017-12-22T13:24:48.548Z,1010.29
2017-12-22T13:25:58.338Z,1010.34
2017-12-22T13:27:08.222Z,1010.29
2017-12-22T13:28:18.292Z,1010.44
2017-12-22T13:29:28.378Z,1010.36
2017-12-22T13:30:38.171Z,1010.39
2017-12-22T13:31:47.734Z,1010.34
2017-12-22T13:32:57.884Z,1010.4
2017-12-22T13:34:07.416Z,1010.4
2017-12-22T13:35:17.480Z,1010.42
2017-12-22T13:36:28.204Z,1010.45
2017-12-22T13:37:38.021Z,1010.47
2017-12-22T13:38:48.144Z,1010.49
2017-12-22T13:39:58.007Z,1010.5
2017-12-22T13:41:07.848Z,1010.53
2017-12-22T13:42:17.639Z,1010.62
2017-12-22T13:43:27.445Z,1010.59
2017-12-22T13:44:37.562Z,1010.58
2017-12-22T13:45:47.122Z,1010.58
2017-12-22T13:46:56.688Z,1010.56
2017-12-22T13:48:06.742Z,1010.54
2017-12-22T13:49:16.532Z,1010.51
2017-12-22T13:50:26.644Z,1010.53
2017-12-22T13:51:36.707Z,1010.53
2017-12-22T13:52:46.765Z,1010.53
2017-12-22T13:53:56.550Z,1010.47
2017-12-22T13:55:06.095Z,1010.47
2017-12-22T13:56:16.162Z,1010.44
2017-12-22T13:57:26.227Z,1010.48
2017-12-22T13:58:36.012Z,1010.49
2017-12-22T13:59:45.290Z,1010.51
2017-12-22T14:00:55.625Z,1010.49
2017-12-22T14:02:05.741Z,1010.52
2017-12-22T14:03:15.551Z,1010.63
2017-12-22T14:04:25.621Z,1010.54
2017-12-22T14:05:35.410Z,1010.56
2017-12-22T14:06:45.213Z,1010.54
2017-12-22T14:07:55.323Z,1010.56
2017-12-22T14:09:05.880Z,1010.56
2017-12-22T14:10:15.881Z,1010.62
2017-12-22T14:11:25.958Z,1010.55
2017-12-22T14:12:36.035Z,1010.57
2017-12-22T14:13:45.580Z,1010.6
2017-12-22T14:14:55.655Z,1010.55
2017-12-22T14:16:05.706Z,1010.59
2017-12-22T14:17:15.783Z,1010.53
2017-12-22T14:18:25.848Z,1010.54
2017-12-22T14:19:35.925Z,1010.52
2017-12-22T14:20:45.766Z,1010.48
2017-12-22T14:21:55.277Z,1010.5
2017-12-22T14:23:05.079Z,1010.53
2017-12-22T14:24:15.131Z,1010.51
2017-12-22T14:25:24.988Z,1010.53
2017-12-22T14:26:34.545Z,1010.64
2017-12-22T14:27:44.083Z,1010.67
2017-12-22T14:28:53.936Z,1010.64
2017-12-22T14:30:03.737Z,1010.68
2017-12-22T14:31:13.609Z,1010.68
2017-12-22T14:32:23.688Z,1010.68
2017-12-22T14:33:33.761Z,1010.62
2017-12-22T14:34:43.310Z,1010.61
2017-12-22T14:35:53.109Z,1010.61
2017-12-22T14:37:04.241Z,1010.64
2017-12-22T14:38:14.303Z,1010.65
2017-12-22T14:39:24.089Z,1010.73